Flint, MI (48552)

6:58 AM EDT on July 28, 2015 (GMT -0400)
Flint Twp / Dye Elementary | | Change Station
CLOSE
Current Station
Personal Weather Station
Location: Flint, MI
Elevation: 741 ft
Nearby Weather Stations

Elev 741 ft 43.01 °N, 83.76 °W | Updated 12 minutes ago

Clear
Clear
61.5 °F
Feels Like 61.5 °F
N
0.0
Wind Variable Wind from SSW

Today
High -- | Low -- °F
--% Chance of Precip.
Yesterday
High -- | Low -- °F
Precip. -- in
6:21 AM 9:00 PM
Waxing Gibbous, 89% visible
Pressure 30.04 in
Visibility 8.0 miles
Clouds Clear
Dew Point 60 °F
Humidity 94%
Rainfall 0.00 in
Snow Depth Not available.
UV 0 out of 12
Pollen 6.00 out of 12
Air Quality Not available.
Flu Activity Not available.
METAR KFNT 281053Z 00000KT 8SM CLR 18/16 A3006 RMK AO2 SLP173 T01830161

More Conditions Fewer Conditions

Pressure 30.04 in
Visibility 8.0 miles
Clouds Clear
Dew Point 60 °F
Humidity 94%
Rainfall 0.00 in
Snow Depth Not available.
UV 0 out of 12
Pollen 6.00 out of 12
Air Quality Not available.
Flu Activity Not available.
METAR KFNT 281053Z 00000KT 8SM CLR 18/16 A3006 RMK AO2 SLP173 T01830161

More Conditions Fewer Conditions

10-Day Weather Forecast

×

Almanac

Astronomy

Jul. 28, 2015 Rise Set
Actual Time
Civil Twilight
Nautical Twilight
Astronomical Twilight
Moon
Length of Visible Light
Length of Day
Tomorrow will be .
, % of the Moon is Illuminated

Today's Extremes

State Highs State Lows

Community

WunderPhotos

Upload Photos

1,841,802 photos uploaded!

WunderBlogs® & News

Nearby

Air Quality

  Air Quality AQ Index Pollutant
Not available.

Snow Depth

Station Depth Elevation

Earthquake Activity

City Distance Mag. Time & Date
Minimum magnitude displayed is 2.5.

Coastal Water Temperatures

Place Temperature

Stations

Nearby Weather Stations

Station Location Temp. Windchill Dew Point Humidity Wind Precip. Elev Updated Type